Time;durP1;ratioP1;P1;durP2;ratioP2;P2;SDS_P1;SDS_P2;PMS_P1;PMS_P2;Temp;Humidity;BMP_temperature;BMP_pressure;BME280_temperature;BME280_humidity;BME280_pressure;Samples;Min_cycle;Max_cycle;Signal;HPM_P1;HPM_P2
2021/07/30 00:02:23;;;;;;;7.85;4.45;;;14.20;97.90;;;;;;6246996;23;20004;-71
2021/07/30 00:04:49;;;;;;;7.00;4.20;;;14.20;97.80;;;;;;6245443;23;20270;-72
2021/07/30 00:07:14;;;;;;;7.97;4.80;;;14.30;97.60;;;;;;6247102;23;19996;-70
2021/07/30 00:09:40;;;;;;;6.28;3.80;;;14.30;97.70;;;;;;6246831;23;20004;-70
2021/07/30 00:12:06;;;;;;;7.00;4.25;;;14.30;97.70;;;;;;6248759;23;20031;-71
2021/07/30 00:14:32;;;;;;;7.15;4.07;;;14.30;97.70;;;;;;6247648;23;20000;-70
2021/07/30 00:16:59;;;;;;;8.85;4.70;;;14.20;97.70;;;;;;6249079;23;20000;-70
2021/07/30 00:19:25;;;;;;;9.27;4.55;;;14.10;97.70;;;;;;6249264;23;20087;-72
2021/07/30 00:21:51;;;;;;;8.00;4.50;;;14.00;97.80;;;;;;6249537;23;19996;-71
2021/07/30 00:24:16;;;;;;;8.48;4.45;;;13.90;98.00;;;;;;6249140;23;20000;-71
2021/07/30 00:26:42;;;;;;;8.48;4.80;;;13.80;97.90;;;;;;6248479;23;20315;-71
2021/07/30 00:29:10;;;;;;;9.07;4.28;;;13.70;98.00;;;;;;6247658;23;20008;-70
2021/07/30 00:31:36;;;;;;;8.25;4.20;;;13.70;98.00;;;;;;6249264;23;20000;-72
2021/07/30 00:34:01;;;;;;;8.65;4.72;;;13.80;98.00;;;;;;6249022;23;20007;-72
2021/07/30 00:36:28;;;;;;;6.88;3.83;;;13.80;98.00;;;;;;6248201;23;20000;-70
2021/07/30 00:38:55;;;;;;;6.70;3.40;;;13.90;98.00;;;;;;6248485;23;20054;-71
2021/07/30 00:41:21;;;;;;;6.40;4.00;;;14.00;97.90;;;;;;6248264;23;20004;-72
2021/07/30 00:43:47;;;;;;;7.97;4.15;;;14.00;97.90;;;;;;6248316;23;20016;-71
2021/07/30 00:46:13;;;;;;;7.40;4.30;;;14.10;97.90;;;;;;6247842;23;20142;-72
2021/07/30 00:48:39;;;;;;;10.95;5.10;;;14.10;97.80;;;;;;6248430;23;20004;-71
2021/07/30 00:51:05;;;;;;;7.57;4.45;;;14.20;97.70;;;;;;6249526;23;20054;-71
2021/07/30 00:53:31;;;;;;;6.75;4.00;;;14.20;97.80;;;;;;6221387;23;20151;-71
2021/07/30 00:55:58;;;;;;;7.22;4.40;;;14.20;97.80;;;;;;6249070;23;20084;-71
2021/07/30 00:58:27;;;;;;;8.45;4.43;;;14.10;97.80;;;;;;6249184;23;20034;-71
2021/07/30 01:00:53;;;;;;;7.00;4.60;;;14.20;97.80;;;;;;6247033;23;19996;-71
2021/07/30 01:03:19;;;;;;;9.02;4.75;;;14.10;97.70;;;;;;6248959;23;20054;-71
2021/07/30 01:05:46;;;;;;;7.88;4.63;;;14.20;97.80;;;;;;6247944;23;20003;-72
2021/07/30 01:08:11;;;;;;;7.80;4.00;;;14.20;97.80;;;;;;6222127;23;20404;-71
2021/07/30 01:10:37;;;;;;;7.75;4.75;;;14.20;97.80;;;;;;6247749;23;20004;-72
2021/07/30 01:13:05;;;;;;;8.52;4.45;;;14.20;97.70;;;;;;6249188;23;20397;-72
2021/07/30 01:15:32;;;;;;;7.03;4.38;;;14.20;97.70;;;;;;6246362;23;20362;-72
2021/07/30 01:17:57;;;;;;;5.70;3.80;;;14.10;97.80;;;;;;6248642;23;20008;-72
2021/07/30 01:20:27;;;;;;;8.52;4.45;;;13.90;97.90;;;;;;6222255;23;20318;-72
2021/07/30 01:22:54;;;;;;;7.65;4.18;;;13.80;98.00;;;;;;6248603;23;20005;-72
2021/07/30 01:25:29;;;;;;;8.93;4.47;;;13.60;98.00;;;;;;6222476;23;20052;-72
2021/07/30 01:27:56;;;;;;;10.77;4.90;;;13.50;98.00;;;;;;6248791;23;20095;-71
2021/07/30 01:30:24;;;;;;;8.20;5.20;;;13.50;98.00;;;;;;6247587;23;20022;-72
2021/07/30 01:32:49;;;;;;;9.40;5.00;;;13.50;98.00;;;;;;6248373;23;20000;-72
2021/07/30 01:35:15;;;;;;;7.65;4.75;;;13.50;98.00;;;;;;6248484;23;20000;-72
2021/07/30 01:37:41;;;;;;;9.25;5.07;;;13.40;98.00;;;;;;6247865;23;20240;-71
2021/07/30 01:40:09;;;;;;;9.50;5.00;;;13.40;98.00;;;;;;6249025;23;20007;-71
2021/07/30 01:42:36;;;;;;;9.30;4.97;;;13.40;98.00;;;;;;6247937;23;20000;-71
2021/07/30 01:45:03;;;;;;;10.40;5.30;;;13.30;98.00;;;;;;6246466;23;20463;-72
2021/07/30 01:47:31;;;;;;;10.13;5.55;;;13.30;98.00;;;;;;6247893;23;20370;-72
2021/07/30 01:49:57;;;;;;;9.25;5.25;;;13.20;98.00;;;;;;6248610;23;20007;-71
2021/07/30 01:52:23;;;;;;;12.00;5.22;;;13.10;98.00;;;;;;6248960;23;20009;-71
2021/07/30 01:54:49;;;;;;;8.40;5.22;;;13.00;98.00;;;;;;6248013;23;20005;-71
2021/07/30 01:57:18;;;;;;;9.50;5.22;;;13.00;98.00;;;;;;6248201;23;20008;-71
2021/07/30 01:59:43;;;;;;;8.90;5.43;;;13.00;98.00;;;;;;6246291;23;20011;-70
2021/07/30 02:02:09;;;;;;;8.40;4.63;;;13.10;98.00;;;;;;6248251;23;20004;-73
2021/07/30 02:04:38;;;;;;;9.43;4.75;;;13.10;98.00;;;;;;6247976;23;20000;-71
2021/07/30 02:07:04;;;;;;;9.10;5.32;;;13.10;98.00;;;;;;6247733;23;20054;-71
2021/07/30 02:09:30;;;;;;;8.23;4.93;;;13.10;98.00;;;;;;6247803;23;20004;-71
2021/07/30 02:11:56;;;;;;;8.48;5.07;;;13.10;98.00;;;;;;6248260;23;20314;-72
2021/07/30 02:14:28;;;;;;;8.95;5.05;;;13.10;98.00;;;;;;6246373;23;20018;-70
2021/07/30 02:16:55;;;;;;;9.13;5.32;;;13.20;98.00;;;;;;6247887;23;20011;-72
2021/07/30 02:19:24;;;;;;;8.40;4.97;;;13.20;98.00;;;;;;6222569;23;20084;-70
2021/07/30 02:21:51;;;;;;;8.45;4.97;;;13.30;98.00;;;;;;6220464;23;20007;-71
2021/07/30 02:24:17;;;;;;;8.82;5.00;;;13.30;98.00;;;;;;6248794;23;20003;-72
2021/07/30 02:26:43;;;;;;;9.02;4.68;;;13.40;98.00;;;;;;6221182;23;20007;-71
2021/07/30 02:29:09;;;;;;;7.60;4.90;;;13.40;98.00;;;;;;6246288;23;20004;-71
2021/07/30 02:31:34;;;;;;;8.57;4.97;;;13.40;98.00;;;;;;6246984;23;20055;-71
2021/07/30 02:34:00;;;;;;;8.63;5.05;;;13.40;98.00;;;;;;6246916;23;20261;-71
2021/07/30 02:36:26;;;;;;;10.50;5.38;;;13.40;98.00;;;;;;6220910;23;20027;-71
2021/07/30 02:38:52;;;;;;;9.45;5.45;;;13.50;98.00;;;;;;6221001;23;20118;-71
2021/07/30 02:41:18;;;;;;;10.15;5.10;;;13.50;98.00;;;;;;6246904;23;20365;-71
2021/07/30 02:43:45;;;;;;;11.25;5.25;;;13.40;98.00;;;;;;6247181;23;20012;-71
2021/07/30 02:46:11;;;;;;;10.43;5.00;;;13.40;98.00;;;;;;6246590;23;20075;-71
2021/07/30 02:48:37;;;;;;;8.88;5.00;;;13.30;98.00;;;;;;6247265;23;20000;-71
2021/07/30 02:51:03;;;;;;;7.55;4.85;;;13.20;98.00;;;;;;6246635;23;20083;-72
2021/07/30 02:53:29;;;;;;;9.43;4.68;;;13.10;98.00;;;;;;6247778;23;20030;-71
2021/07/30 02:55:55;;;;;;;9.75;5.15;;;13.10;98.00;;;;;;6247663;23;20369;-71
2021/07/30 02:58:20;;;;;;;10.35;5.93;;;13.10;98.00;;;;;;6246839;23;20038;-71
2021/07/30 03:00:46;;;;;;;9.93;5.63;;;13.00;98.00;;;;;;6245875;23;20377;-72
2021/07/30 03:03:12;;;;;;;8.63;5.40;;;12.80;98.00;;;;;;6221331;23;20429;-71
2021/07/30 03:05:37;;;;;;;9.02;5.07;;;12.70;98.00;;;;;;6247340;23;20008;-71
2021/07/30 03:08:03;;;;;;;8.77;6.00;;;12.60;98.00;;;;;;6247826;23;20000;-71
2021/07/30 03:10:29;;;;;;;10.13;5.80;;;12.50;98.00;;;;;;6246721;23;20003;-71
2021/07/30 03:12:54;;;;;;;8.35;5.53;;;12.60;98.00;;;;;;6248131;23;20000;-72
2021/07/30 03:15:20;;;;;;;11.23;5.53;;;12.50;98.00;;;;;;6246046;23;20004;-72
2021/07/30 03:17:46;;;;;;;11.68;6.07;;;12.40;98.00;;;;;;6247096;23;21219;-72
2021/07/30 03:20:12;;;;;;;8.63;5.13;;;12.30;98.00;;;;;;6247373;23;20058;-71
2021/07/30 03:22:40;;;;;;;9.75;5.72;;;12.10;98.00;;;;;;6247424;23;20003;-72
2021/07/30 03:25:07;;;;;;;8.95;5.70;;;12.10;98.00;;;;;;6246226;23;20083;-71
2021/07/30 03:27:32;;;;;;;8.85;5.38;;;12.20;98.00;;;;;;6246907;23;20000;-72
2021/07/30 03:29:58;;;;;;;8.60;5.70;;;12.10;98.00;;;;;;6245683;23;20046;-72
2021/07/30 03:32:24;;;;;;;13.60;6.65;;;12.00;98.00;;;;;;6247526;23;20008;-72
2021/07/30 03:34:50;;;;;;;10.70;6.53;;;11.90;98.00;;;;;;6247389;23;20004;-72
2021/07/30 03:37:15;;;;;;;8.27;5.80;;;11.80;98.00;;;;;;6247590;23;20370;-72
2021/07/30 03:39:41;;;;;;;9.32;5.97;;;11.80;98.00;;;;;;6247013;23;20243;-72
2021/07/30 03:42:08;;;;;;;11.85;6.20;;;11.70;98.00;;;;;;6247049;23;20004;-72
2021/07/30 03:44:36;;;;;;;8.90;6.03;;;11.70;98.00;;;;;;6244653;23;20087;-72
2021/07/30 03:47:01;;;;;;;10.52;5.90;;;11.70;98.00;;;;;;6248472;23;20354;-71
2021/07/30 03:49:27;;;;;;;9.77;6.00;;;11.70;97.90;;;;;;6249944;23;20008;-72
2021/07/30 03:51:52;;;;;;;13.70;6.10;;;11.70;98.00;;;;;;6250887;23;20389;-71
2021/07/30 03:54:18;;;;;;;10.88;5.70;;;11.70;98.00;;;;;;6250754;23;20000;-71
2021/07/30 03:56:44;;;;;;;11.10;6.68;;;11.80;97.60;;;;;;6250427;23;20004;-71
2021/07/30 03:59:10;;;;;;;11.52;7.05;;;11.80;97.90;;;;;;6248857;23;20004;-72
2021/07/30 04:01:46;;;;;;;9.40;5.78;;;11.90;97.90;;;;;;6250695;23;20272;-71
2021/07/30 04:04:13;;;;;;;10.50;6.05;;;12.10;98.00;;;;;;6250988;23;20000;-71
2021/07/30 04:06:39;;;;;;;10.30;6.03;;;12.20;98.00;;;;;;6250106;23;20000;-71
2021/07/30 04:09:04;;;;;;;13.70;6.97;;;12.30;98.00;;;;;;6224113;23;20004;-72
2021/07/30 04:11:30;;;;;;;9.70;5.85;;;12.40;98.00;;;;;;6250452;23;20008;-71
2021/07/30 04:13:55;;;;;;;8.65;5.88;;;12.40;98.00;;;;;;6249644;23;20008;-71
2021/07/30 04:16:21;;;;;;;10.95;6.25;;;12.40;98.00;;;;;;6249777;23;20008;-72
2021/07/30 04:18:47;;;;;;;10.90;5.70;;;12.30;98.00;;;;;;6223261;23;20015;-71
2021/07/30 04:21:12;;;;;;;9.55;5.97;;;12.30;98.00;;;;;;6250568;23;20349;-71
2021/07/30 04:23:38;;;;;;;8.82;5.40;;;12.20;98.00;;;;;;6250075;23;20366;-71
2021/07/30 04:26:04;;;;;;;9.45;5.88;;;12.30;98.00;;;;;;6250642;23;20000;-72
2021/07/30 04:28:29;;;;;;;10.55;6.10;;;12.40;98.00;;;;;;6250301;23;20004;-71
2021/07/30 04:30:55;;;;;;;9.68;6.18;;;12.60;98.00;;;;;;6249109;23;20000;-72
2021/07/30 04:33:20;;;;;;;10.38;5.40;;;12.70;98.00;;;;;;6250938;23;20135;-72
2021/07/30 04:35:49;;;;;;;9.25;5.65;;;12.90;98.00;;;;;;6249564;23;20004;-71
2021/07/30 04:38:15;;;;;;;10.88;5.85;;;13.10;98.00;;;;;;6250816;23;20010;-72
2021/07/30 04:40:40;;;;;;;9.00;5.43;;;13.30;98.00;;;;;;6249712;23;19996;-72
2021/07/30 04:43:06;;;;;;;8.38;5.10;;;13.40;98.00;;;;;;6250799;23;20004;-72
2021/07/30 04:45:34;;;;;;;9.75;5.13;;;13.50;98.00;;;;;;6248817;23;20004;-72
2021/07/30 04:48:02;;;;;;;8.05;5.03;;;13.70;98.00;;;;;;6250857;23;19996;-72
2021/07/30 04:50:29;;;;;;;9.68;5.93;;;13.90;98.00;;;;;;6223139;23;20051;-72
2021/07/30 04:52:54;;;;;;;8.10;4.70;;;14.00;98.00;;;;;;6249675;23;20008;-72
2021/07/30 04:55:20;;;;;;;8.02;5.07;;;14.00;98.00;;;;;;6250211;23;19996;-72
2021/07/30 04:57:46;;;;;;;7.30;4.43;;;14.20;97.90;;;;;;6249260;23;20001;-73
2021/07/30 05:00:12;;;;;;;7.78;4.60;;;14.40;97.50;;;;;;6221183;23;20004;-72
2021/07/30 05:02:38;;;;;;;7.50;4.50;;;14.50;97.00;;;;;;6248408;23;20357;-72
2021/07/30 05:05:04;;;;;;;10.05;4.72;;;14.80;96.40;;;;;;6249354;23;20071;-72
2021/07/30 05:07:30;;;;;;;9.57;4.75;;;14.90;95.90;;;;;;6248510;23;20071;-72
2021/07/30 05:09:55;;;;;;;8.40;4.70;;;15.00;95.80;;;;;;6249250;23;20107;-72
2021/07/30 05:12:24;;;;;;;7.70;4.78;;;15.10;95.30;;;;;;6249033;23;20014;-72
2021/07/30 05:14:49;;;;;;;8.30;4.90;;;15.20;95.80;;;;;;6246682;23;20071;-72
2021/07/30 05:17:15;;;;;;;8.88;4.97;;;15.20;95.30;;;;;;6248509;23;20031;-71
2021/07/30 05:19:43;;;;;;;7.45;4.53;;;15.20;95.80;;;;;;6248325;23;20004;-73
2021/07/30 05:22:09;;;;;;;7.35;4.40;;;15.00;96.70;;;;;;6248910;23;19997;-73
2021/07/30 05:24:37;;;;;;;9.00;4.72;;;15.00;96.10;;;;;;6247759;23;20004;-72
2021/07/30 05:27:05;;;;;;;8.13;4.70;;;15.00;96.50;;;;;;6248571;23;20320;-71
2021/07/30 05:29:31;;;;;;;7.43;4.70;;;15.00;96.80;;;;;;6246796;23;20008;-70
2021/07/30 05:31:56;;;;;;;7.38;4.60;;;15.10;96.10;;;;;;6248315;23;20008;-71
2021/07/30 05:34:22;;;;;;;12.23;5.05;;;15.20;95.80;;;;;;6249192;23;20027;-71
2021/07/30 05:36:47;;;;;;;8.90;5.07;;;15.30;96.30;;;;;;6247890;23;20015;-71
2021/07/30 05:39:13;;;;;;;6.97;4.30;;;15.30;96.40;;;;;;6222131;23;20012;-71
2021/07/30 05:41:41;;;;;;;8.63;4.88;;;15.50;96.10;;;;;;6248328;23;20000;-72
2021/07/30 05:44:09;;;;;;;10.48;5.10;;;15.60;95.70;;;;;;6247358;23;20111;-71
2021/07/30 05:46:38;;;;;;;7.90;4.45;;;15.90;95.40;;;;;;6248338;23;20000;-71
2021/07/30 05:49:04;;;;;;;7.50;4.53;;;16.30;94.60;;;;;;6247121;23;20011;-71
2021/07/30 05:51:29;;;;;;;8.15;4.53;;;16.60;93.60;;;;;;6247711;23;20004;-71
2021/07/30 05:53:55;;;;;;;8.35;4.32;;;16.80;93.20;;;;;;6247614;23;20395;-72
2021/07/30 05:56:21;;;;;;;7.88;3.97;;;17.00;93.20;;;;;;6248636;23;20009;-71
2021/07/30 05:58:46;;;;;;;8.60;4.30;;;17.20;92.40;;;;;;6247076;23;20086;-71
2021/07/30 06:01:13;;;;;;;7.97;5.18;;;17.20;93.10;;;;;;6246220;23;20254;-71
2021/07/30 06:03:39;;;;;;;7.65;4.70;;;17.30;93.70;;;;;;6247846;22;20015;-71
2021/07/30 06:06:05;;;;;;;7.63;4.85;;;17.40;93.60;;;;;;6248935;23;20118;-71
2021/07/30 06:08:31;;;;;;;11.13;5.13;;;17.60;93.10;;;;;;6247324;23;20085;-71
2021/07/30 06:10:57;;;;;;;8.82;5.00;;;17.60;93.20;;;;;;6248539;23;20083;-71
2021/07/30 06:13:22;;;;;;;9.15;5.10;;;17.70;93.20;;;;;;6248559;23;20038;-71
2021/07/30 06:15:48;;;;;;;9.18;4.60;;;17.90;92.70;;;;;;6246429;23;20087;-72
2021/07/30 06:18:14;;;;;;;7.55;4.70;;;18.20;91.30;;;;;;6248390;23;20071;-72
2021/07/30 06:20:40;;;;;;;8.77;4.45;;;18.40;90.50;;;;;;6247663;23;20000;-71
2021/07/30 06:23:06;;;;;;;8.90;4.82;;;18.50;90.30;;;;;;6248505;23;20007;-71
2021/07/30 06:25:31;;;;;;;8.70;4.35;;;18.60;90.50;;;;;;6247894;23;19993;-71
2021/07/30 06:27:57;;;;;;;10.07;5.18;;;18.80;90.40;;;;;;6247611;23;20007;-72
2021/07/30 06:30:23;;;;;;;8.35;4.60;;;18.80;90.20;;;;;;6247045;23;20081;-71
2021/07/30 06:32:49;;;;;;;8.43;4.43;;;18.80;90.40;;;;;;6247500;23;20003;-72
2021/07/30 06:35:15;;;;;;;8.98;5.07;;;18.80;90.80;;;;;;6248542;23;20008;-71
2021/07/30 06:37:42;;;;;;;8.30;5.30;;;19.00;91.10;;;;;;6246731;23;20007;-72
2021/07/30 06:40:08;;;;;;;7.70;4.75;;;19.20;90.70;;;;;;6246957;23;20079;-71
2021/07/30 06:42:35;;;;;;;9.27;5.50;;;19.10;91.60;;;;;;6247189;23;20000;-71
2021/07/30 06:45:02;;;;;;;7.78;5.47;;;19.00;91.20;;;;;;6246486;23;20447;-72
2021/07/30 06:47:28;;;;;;;7.75;4.40;;;19.10;91.30;;;;;;6247555;23;20024;-71
2021/07/30 06:49:53;;;;;;;10.60;6.15;;;19.40;91.20;;;;;;6246856;23;20389;-71
2021/07/30 06:52:19;;;;;;;7.63;4.75;;;19.50;91.10;;;;;;6247129;23;20004;-71
2021/07/30 06:54:46;;;;;;;9.32;4.93;;;19.50;91.00;;;;;;6220508;23;20023;-72
2021/07/30 06:57:12;;;;;;;7.32;4.45;;;19.50;91.50;;;;;;6247598;23;20022;-71
2021/07/30 06:59:38;;;;;;;9.85;4.25;;;19.70;91.30;;;;;;6245283;23;20008;-72
2021/07/30 07:02:06;;;;;;;8.10;4.43;;;20.00;88.80;;;;;;6247227;23;20004;-71
2021/07/30 07:04:32;;;;;;;7.70;4.47;;;20.10;86.40;;;;;;6247178;23;20262;-72
2021/07/30 07:06:58;;;;;;;5.93;3.95;;;20.30;84.20;;;;;;6221021;23;20011;-71
2021/07/30 07:09:24;;;;;;;8.00;4.65;;;20.40;85.30;;;;;;6247712;23;20008;-71
2021/07/30 07:11:53;;;;;;;7.43;4.40;;;20.50;82.40;;;;;;6247142;23;20004;-71
2021/07/30 07:14:19;;;;;;;9.57;4.25;;;20.50;80.50;;;;;;6246082;23;20027;-71
2021/07/30 07:16:44;;;;;;;6.50;4.00;;;20.50;80.40;;;;;;6247784;23;20397;-72
2021/07/30 07:19:10;;;;;;;7.78;4.80;;;20.50;80.70;;;;;;6247545;23;20047;-72
2021/07/30 07:21:40;;;;;;;8.20;4.93;;;20.60;80.80;;;;;;6246242;23;20007;-71
2021/07/30 07:24:07;;;;;;;8.05;4.15;;;20.80;79.20;;;;;;6247999;23;20344;-72
2021/07/30 07:26:36;;;;;;;9.15;5.05;;;20.90;78.40;;;;;;6247179;23;20008;-71
2021/07/30 07:29:05;;;;;;;7.72;4.43;;;21.00;78.70;;;;;;6244856;23;20000;-71
2021/07/30 07:31:31;;;;;;;6.93;4.20;;;21.20;78.40;;;;;;6247481;23;20064;-71
2021/07/30 07:33:57;;;;;;;7.95;5.05;;;21.30;79.70;;;;;;6247553;23;20083;-71
2021/07/30 07:36:23;;;;;;;8.43;4.80;;;21.30;77.60;;;;;;6247046;23;20000;-71
2021/07/30 07:38:49;;;;;;;7.80;4.78;;;21.10;78.80;;;;;;6246832;23;20004;-72
2021/07/30 07:41:17;;;;;;;8.63;4.38;;;21.10;81.80;;;;;;6247612;23;20070;-71
2021/07/30 07:43:46;;;;;;;7.43;4.20;;;21.10;79.20;;;;;;6247120;23;20016;-72
2021/07/30 07:46:12;;;;;;;7.53;3.95;;;21.50;78.50;;;;;;6245222;23;19996;-72
2021/07/30 07:48:37;;;;;;;9.00;4.22;;;22.00;77.10;;;;;;6247026;23;20008;-71
2021/07/30 07:51:03;;;;;;;6.63;3.80;;;22.60;76.40;;;;;;6246775;23;20400;-71
2021/07/30 07:53:29;;;;;;;7.32;4.28;;;23.70;73.20;;;;;;6246920;23;20008;-72
2021/07/30 07:56:05;;;;;;;7.85;4.07;;;24.40;69.70;;;;;;6247524;23;20008;-71
2021/07/30 07:58:32;;;;;;;11.18;4.30;;;25.00;67.70;;;;;;6246852;23;20012;-71
2021/07/30 08:00:58;;;;;;;8.20;4.22;;;25.10;68.70;;;;;;6246232;23;20008;-71
2021/07/30 08:03:23;;;;;;;8.50;4.28;;;25.10;68.50;;;;;;6247611;23;20023;-71
2021/07/30 08:05:49;;;;;;;6.53;3.92;;;25.10;68.90;;;;;;6246884;23;20062;-70
2021/07/30 08:08:15;;;;;;;9.95;3.95;;;25.20;68.70;;;;;;6246990;23;20000;-72
2021/07/30 08:10:40;;;;;;;6.15;3.70;;;25.70;68.10;;;;;;6247092;23;20003;-72
2021/07/30 08:13:06;;;;;;;7.85;4.18;;;25.90;68.00;;;;;;6247068;23;20089;-71
2021/07/30 08:15:32;;;;;;;6.35;3.55;;;26.60;67.40;;;;;;6245541;23;20038;-71
2021/07/30 08:18:00;;;;;;;7.38;4.13;;;26.70;66.10;;;;;;6247442;23;20130;-71
2021/07/30 08:20:26;;;;;;;6.28;3.88;;;26.40;66.20;;;;;;6247598;23;20007;-72
2021/07/30 08:22:52;;;;;;;7.70;4.10;;;25.90;67.50;;;;;;6246739;23;20004;-71
2021/07/30 08:25:17;;;;;;;7.20;4.35;;;26.00;68.20;;;;;;6247216;23;20006;-71
2021/07/30 08:27:43;;;;;;;8.65;4.55;;;25.80;68.70;;;;;;6246957;23;20388;-71
2021/07/30 08:30:12;;;;;;;9.05;4.70;;;25.50;68.50;;;;;;6246119;23;20084;-71
2021/07/30 08:32:37;;;;;;;7.72;3.85;;;25.60;69.00;;;;;;6247883;23;20491;-71
2021/07/30 08:35:03;;;;;;;8.48;4.28;;;26.10;69.30;;;;;;6248968;23;20009;-71
2021/07/30 08:37:29;;;;;;;7.70;4.55;;;26.10;67.30;;;;;;6249055;23;20007;-71
2021/07/30 08:39:55;;;;;;;7.45;4.22;;;26.10;67.50;;;;;;6248832;23;20005;-71
2021/07/30 08:42:20;;;;;;;7.47;4.43;;;26.40;66.50;;;;;;6249316;23;20001;-70
2021/07/30 08:44:46;;;;;;;9.13;4.50;;;26.80;66.70;;;;;;6246357;23;20012;-71
2021/07/30 08:47:14;;;;;;;6.55;4.15;;;26.90;66.30;;;;;;6248864;23;19999;-70
2021/07/30 08:49:40;;;;;;;9.40;4.38;;;26.90;66.10;;;;;;6248672;23;20004;-71
2021/07/30 08:52:10;;;;;;;7.65;4.85;;;27.10;66.80;;;;;;6248621;23;20027;-71
2021/07/30 08:54:37;;;;;;;8.20;4.70;;;27.60;65.10;;;;;;6248278;23;20000;-71
2021/07/30 08:57:10;;;;;;;6.93;4.50;;;27.10;65.80;;;;;;6248785;23;20087;-71
2021/07/30 08:59:45;;;;;;;5.80;3.88;;;27.10;66.50;;;;;;6247234;23;20012;-70
2021/07/30 09:02:10;;;;;;;7.70;4.60;;;27.30;66.20;;;;;;6249094;23;20004;-72
2021/07/30 09:04:36;;;;;;;10.38;5.05;;;27.80;65.00;;;;;;6248303;23;20004;-71
2021/07/30 09:07:02;;;;;;;8.57;4.80;;;28.00;65.90;;;;;;6249007;23;20000;-71
2021/07/30 09:09:32;;;;;;;7.60;4.93;;;28.20;65.10;;;;;;6249268;23;20023;-70
2021/07/30 09:12:01;;;;;;;8.32;4.80;;;28.50;63.90;;;;;;6248672;23;20004;-71
2021/07/30 09:14:44;;;;;;;7.22;4.65;;;28.70;63.20;;;;;;6247670;23;20000;-71
2021/07/30 09:17:10;;;;;;;9.85;5.50;;;28.80;63.20;;;;;;6248509;23;20091;-71
2021/07/30 09:20:03;;;;;;;7.40;4.32;;;28.60;64.00;;;;;;6247619;23;20402;-70
2021/07/30 09:22:46;;;;;;;7.18;4.68;;;28.70;63.50;;;;;;6222328;23;20032;-71
2021/07/30 09:25:13;;;;;;;15.73;6.95;;;28.80;62.60;;;;;;6248715;23;20075;-71
2021/07/30 09:27:40;;;;;;;9.77;5.25;;;28.70;63.50;;;;;;6248446;23;20416;-71
2021/07/30 09:30:15;;;;;;;10.15;5.07;;;29.00;64.60;;;;;;6247073;23;20251;-70
2021/07/30 09:32:42;;;;;;;9.60;4.72;;;29.10;62.90;;;;;;6247817;23;20011;-71
2021/07/30 09:35:09;;;;;;;8.50;4.47;;;29.30;62.50;;;;;;6248803;23;20000;-70
2021/07/30 09:37:34;;;;;;;10.35;5.65;;;30.10;61.60;;;;;;6248327;23;20008;-71
2021/07/30 09:40:01;;;;;;;8.15;5.10;;;30.30;59.80;;;;;;6248379;23;20008;-69
2021/07/30 09:42:35;;;;;;;11.40;5.00;;;29.40;61.60;;;;;;6248760;23;20023;-69
2021/07/30 09:45:08;;;;;;;7.03;4.65;;;29.00;63.00;;;;;;6246531;23;20020;-70
2021/07/30 09:47:46;;;;;;;6.35;4.32;;;29.30;62.60;;;;;;6221692;23;20000;-71
2021/07/30 09:50:12;;;;;;;8.15;4.57;;;29.70;62.20;;;;;;6249195;23;20382;-70
2021/07/30 09:52:41;;;;;;;11.82;5.00;;;29.10;62.70;;;;;;6247605;23;20008;-70
2021/07/30 09:55:11;;;;;;;7.13;4.93;;;29.00;63.10;;;;;;6248234;23;20028;-70
2021/07/30 09:57:40;;;;;;;9.38;4.60;;;30.10;61.60;;;;;;6248239;23;20000;-70
2021/07/30 10:00:10;;;;;;;8.77;5.25;;;31.20;59.50;;;;;;6246608;23;20000;-72
2021/07/30 10:02:37;;;;;;;10.07;4.75;;;30.70;59.60;;;;;;6248339;23;20118;-71
2021/07/30 10:05:05;;;;;;;8.68;5.18;;;30.20;62.10;;;;;;6248690;23;20098;-70
2021/07/30 10:07:32;;;;;;;7.68;4.82;;;30.40;60.30;;;;;;6248246;23;20075;-70
2021/07/30 10:10:19;;;;;;;8.68;5.13;;;30.60;60.40;;;;;;6248777;23;20000;-70
2021/07/30 10:12:55;;;;;;;8.32;5.10;;;30.70;60.30;;;;;;6246502;23;20087;-69
2021/07/30 10:15:21;;;;;;;7.88;4.68;;;31.80;58.00;;;;;;6246927;23;20016;-69
2021/07/30 10:17:50;;;;;;;7.55;4.75;;;32.00;58.50;;;;;;6247952;23;20027;-70
2021/07/30 10:20:21;;;;;;;7.78;4.88;;;31.50;59.80;;;;;;6221402;23;20004;-70
2021/07/30 10:23:04;;;;;;;7.95;4.35;;;31.30;61.20;;;;;;6247439;23;20011;-69
2021/07/30 10:25:36;;;;;;;7.07;4.73;;;32.00;58.60;;;;;;6221264;23;20010;-71
2021/07/30 10:28:05;;;;;;;6.83;4.80;;;32.30;59.80;;;;;;6247425;23;20008;-70
2021/07/30 10:30:53;;;;;;;8.50;4.57;;;31.60;59.50;;;;;;6244763;23;20648;-70
2021/07/30 10:33:30;;;;;;;6.95;4.53;;;30.90;61.60;;;;;;6247392;23;19997;-70
2021/07/30 10:35:59;;;;;;;10.63;5.10;;;30.90;61.50;;;;;;6221703;23;20269;-69
2021/07/30 10:38:25;;;;;;;7.35;4.93;;;30.90;61.10;;;;;;6247143;23;20039;-70
2021/07/30 10:41:12;;;;;;;11.65;5.03;;;30.80;62.00;;;;;;6247544;23;20019;-71
2021/07/30 10:43:50;;;;;;;7.00;5.07;;;30.50;62.80;;;;;;6215175;23;20323;-71
2021/07/30 10:46:17;;;;;;;8.60;5.10;;;30.80;62.30;;;;;;6215408;23;20050;-71
2021/07/30 10:48:43;;;;;;;7.80;4.95;;;31.80;60.00;;;;;;6215603;23;20001;-71
2021/07/30 10:51:18;;;;;;;6.95;4.97;;;32.30;59.90;;;;;;6216934;23;20035;-71
2021/07/30 10:53:47;;;;;;;8.85;5.28;;;32.30;59.60;;;;;;6216257;23;20004;-71
2021/07/30 10:56:21;;;;;;;6.95;4.88;;;32.00;60.30;;;;;;6214989;23;20011;-70
2021/07/30 10:58:50;;;;;;;8.45;4.63;;;31.50;60.30;;;;;;6215307;23;20001;-70
2021/07/30 11:01:28;;;;;;;8.10;5.03;;;30.00;62.90;;;;;;6210978;23;20063;-70
2021/07/30 11:03:54;;;;;;;8.93;5.10;;;30.30;63.50;;;;;;6213010;23;20051;-71
2021/07/30 11:06:30;;;;;;;9.32;5.10;;;30.70;63.20;;;;;;6212973;23;20310;-71
2021/07/30 11:11:45;;;;;;;8.60;5.35;;;31.40;60.70;;;;;;6213970;23;20099;-70
2021/07/30 11:14:17;;;;;;;8.30;5.60;;;31.20;61.50;;;;;;6209529;23;20386;-71
2021/07/30 11:16:45;;;;;;;8.60;5.63;;;31.50;60.30;;;;;;6212474;23;20079;-72
2021/07/30 11:19:12;;;;;;;8.25;5.47;;;30.40;62.90;;;;;;6211871;23;20035;-71
2021/07/30 11:21:39;;;;;;;7.95;5.68;;;29.90;63.20;;;;;;6212792;23;20004;-71
2021/07/30 11:24:06;;;;;;;8.98;5.60;;;30.20;62.80;;;;;;6212590;23;20084;-72
2021/07/30 11:26:34;;;;;;;9.57;5.78;;;30.60;62.80;;;;;;6212317;23;20000;-71
2021/07/30 11:29:12;;;;;;;9.85;6.07;;;30.30;63.00;;;;;;6211044;23;20028;-72
2021/07/30 11:31:56;;;;;;;8.43;5.20;;;29.90;64.20;;;;;;6212291;23;20008;-72
2021/07/30 11:34:28;;;;;;;8.50;5.40;;;30.90;63.80;;;;;;6212281;23;20015;-72
2021/07/30 11:36:55;;;;;;;8.45;5.25;;;31.50;61.90;;;;;;6212448;23;20062;-72
2021/07/30 11:39:38;;;;;;;8.30;5.40;;;31.60;60.70;;;;;;6212969;23;20012;-72
2021/07/30 11:42:09;;;;;;;9.55;6.00;;;31.60;61.20;;;;;;6213082;23;20009;-69
2021/07/30 11:44:48;;;;;;;8.75;5.50;;;30.80;62.70;;;;;;6209941;23;20099;-70
2021/07/30 11:47:15;;;;;;;8.63;5.18;;;30.70;63.60;;;;;;6213223;23;20084;-70
2021/07/30 11:49:44;;;;;;;15.02;6.38;;;31.20;62.70;;;;;;6212352;23;20040;-70
2021/07/30 11:52:17;;;;;;;14.65;6.05;;;30.90;62.40;;;;;;6212606;23;20009;-71
2021/07/30 11:54:43;;;;;;;9.63;5.73;;;30.10;64.20;;;;;;6211558;23;20629;-71
2021/07/30 11:57:09;;;;;;;17.80;5.97;;;29.50;65.30;;;;;;6212164;23;20011;-70
2021/07/30 11:59:50;;;;;;;9.30;5.13;;;28.80;66.60;;;;;;6210476;23;20009;-71
2021/07/30 12:02:16;;;;;;;7.93;5.25;;;28.40;67.60;;;;;;6211077;23;20000;-70
2021/07/30 12:04:55;;;;;;;10.90;5.90;;;29.20;68.20;;;;;;6210634;23;20012;-71
2021/07/30 12:07:36;;;;;;;17.02;6.70;;;29.40;66.20;;;;;;6211690;23;20437;-71
2021/07/30 12:10:09;;;;;;;12.75;6.07;;;29.60;65.50;;;;;;6215174;23;20032;-70
2021/07/30 12:13:03;;;;;;;7.68;5.40;;;29.90;65.50;;;;;;6214471;23;20337;-71
2021/07/30 12:15:28;;;;;;;8.07;5.63;;;30.40;66.00;;;;;;6211256;23;20012;-70
2021/07/30 12:18:03;;;;;;;8.63;5.43;;;30.60;62.50;;;;;;6212455;23;20028;-72
2021/07/30 12:20:36;;;;;;;8.80;5.68;;;30.60;64.60;;;;;;6213737;23;20008;-71
2021/07/30 12:23:08;;;;;;;11.35;5.45;;;30.60;63.70;;;;;;6214752;23;20414;-72
2021/07/30 12:25:45;;;;;;;8.43;5.72;;;30.40;63.80;;;;;;6214927;23;20063;-72
2021/07/30 12:28:14;;;;;;;8.82;5.30;;;30.60;64.80;;;;;;6214457;23;20036;-72
2021/07/30 12:30:40;;;;;;;9.65;6.07;;;30.10;64.50;;;;;;6213906;23;20001;-71
2021/07/30 12:33:29;;;;;;;8.65;6.00;;;29.70;64.90;;;;;;6214355;23;20259;-71
2021/07/30 12:36:02;;;;;;;10.25;6.45;;;28.70;66.10;;;;;;6213164;23;20009;-72
2021/07/30 12:38:29;;;;;;;12.23;6.30;;;28.00;67.50;;;;;;6215035;23;20004;-72
2021/07/30 12:41:15;;;;;;;8.57;5.72;;;28.60;67.90;;;;;;6213552;23;20398;-72
2021/07/30 12:43:44;;;;;;;8.48;5.65;;;28.70;67.80;;;;;;6222037;23;20031;-72
2021/07/30 12:46:10;;;;;;;9.52;5.82;;;29.40;65.40;;;;;;6243033;23;20328;-72
2021/07/30 12:48:49;;;;;;;7.90;5.65;;;29.50;66.40;;;;;;6244048;23;20000;-72
2021/07/30 12:51:47;;;;;;;8.88;5.45;;;29.80;65.60;;;;;;6243962;23;20012;-72
2021/07/30 12:54:15;;;;;;;9.80;5.70;;;30.10;64.70;;;;;;6220578;23;20011;-72